sensor_id;sensor_type;location;lat;lon;timestamp;temperature;humidity
10848;DHT22;5477;48.806;9.154;2022-09-28T00:01:07;8.90;99.90
10848;DHT22;5477;48.806;9.154;2022-09-28T00:03:36;8.90;99.90
10848;DHT22;5477;48.806;9.154;2022-09-28T00:06:06;8.90;99.90
10848;DHT22;5477;48.806;9.154;2022-09-28T00:08:36;8.90;99.90
10848;DHT22;5477;48.806;9.154;2022-09-28T00:11:06;8.90;99.90
10848;DHT22;5477;48.806;9.154;2022-09-28T00:13:35;8.90;99.90
10848;DHT22;5477;48.806;9.154;2022-09-28T00:16:04;9.00;99.90
10848;DHT22;5477;48.806;9.154;2022-09-28T00:18:33;9.00;99.90
10848;DHT22;5477;48.806;9.154;2022-09-28T00:21:04;8.90;99.90
10848;DHT22;5477;48.806;9.154;2022-09-28T00:23:33;9.00;99.90
10848;DHT22;5477;48.806;9.154;2022-09-28T00:26:23;9.00;99.90
10848;DHT22;5477;48.806;9.154;2022-09-28T00:28:51;9.00;99.90
10848;DHT22;5477;48.806;9.154;2022-09-28T00:31:20;9.00;99.90
10848;DHT22;5477;48.806;9.154;2022-09-28T00:33:49;9.00;99.90
10848;DHT22;5477;48.806;9.154;2022-09-28T00:36:17;9.00;99.90
10848;DHT22;5477;48.806;9.154;2022-09-28T00:38:46;9.10;99.90
10848;DHT22;5477;48.806;9.154;2022-09-28T00:41:16;9.00;99.90
10848;DHT22;5477;48.806;9.154;2022-09-28T00:43:45;9.00;99.90
10848;DHT22;5477;48.806;9.154;2022-09-28T00:46:17;9.00;99.90
10848;DHT22;5477;48.806;9.154;2022-09-28T00:48:50;9.00;99.90
10848;DHT22;5477;48.806;9.154;2022-09-28T00:51:20;9.10;99.90
10848;DHT22;5477;48.806;9.154;2022-09-28T00:53:50;9.10;99.90
10848;DHT22;5477;48.806;9.154;2022-09-28T00:56:20;9.10;99.90
10848;DHT22;5477;48.806;9.154;2022-09-28T00:58:52;9.10;99.90
10848;DHT22;5477;48.806;9.154;2022-09-28T01:01:20;9.10;99.90
10848;DHT22;5477;48.806;9.154;2022-09-28T01:03:48;9.20;99.90
10848;DHT22;5477;48.806;9.154;2022-09-28T01:06:19;9.20;99.90
10848;DHT22;5477;48.806;9.154;2022-09-28T01:08:49;9.20;99.90
10848;DHT22;5477;48.806;9.154;2022-09-28T01:11:18;9.20;99.90
10848;DHT22;5477;48.806;9.154;2022-09-28T01:13:48;9.20;99.90
10848;DHT22;5477;48.806;9.154;2022-09-28T01:16:27;9.20;99.90
10848;DHT22;5477;48.806;9.154;2022-09-28T01:19:15;9.20;99.90
10848;DHT22;5477;48.806;9.154;2022-09-28T01:21:50;9.20;99.90
10848;DHT22;5477;48.806;9.154;2022-09-28T01:24:33;9.30;99.90
10848;DHT22;5477;48.806;9.154;2022-09-28T01:27:10;9.30;99.90
10848;DHT22;5477;48.806;9.154;2022-09-28T01:29:45;9.40;99.90
10848;DHT22;5477;48.806;9.154;2022-09-28T01:32:21;9.40;99.90
10848;DHT22;5477;48.806;9.154;2022-09-28T01:34:55;9.40;99.90
10848;DHT22;5477;48.806;9.154;2022-09-28T01:37:28;9.40;99.90
10848;DHT22;5477;48.806;9.154;2022-09-28T01:40:01;9.40;99.90
10848;DHT22;5477;48.806;9.154;2022-09-28T01:42:33;9.40;99.90
10848;DHT22;5477;48.806;9.154;2022-09-28T01:45:08;9.40;99.90
10848;DHT22;5477;48.806;9.154;2022-09-28T01:47:39;9.50;99.90
10848;DHT22;5477;48.806;9.154;2022-09-28T01:50:11;9.50;99.90
10848;DHT22;5477;48.806;9.154;2022-09-28T01:52:46;9.50;99.90
10848;DHT22;5477;48.806;9.154;2022-09-28T01:55:19;9.50;99.90
10848;DHT22;5477;48.806;9.154;2022-09-28T01:57:55;9.50;99.90
10848;DHT22;5477;48.806;9.154;2022-09-28T02:00:25;9.60;99.90
10848;DHT22;5477;48.806;9.154;2022-09-28T02:02:58;9.60;99.90
10848;DHT22;5477;48.806;9.154;2022-09-28T02:05:37;9.50;99.90
10848;DHT22;5477;48.806;9.154;2022-09-28T02:08:08;9.60;99.90
10848;DHT22;5477;48.806;9.154;2022-09-28T02:10:40;9.60;99.90
10848;DHT22;5477;48.806;9.154;2022-09-28T02:13:14;9.60;99.90
10848;DHT22;5477;48.806;9.154;2022-09-28T02:15:47;9.60;99.90
10848;DHT22;5477;48.806;9.154;2022-09-28T02:18:16;9.60;99.90
10848;DHT22;5477;48.806;9.154;2022-09-28T02:20:51;9.70;99.90
10848;DHT22;5477;48.806;9.154;2022-09-28T02:23:23;9.70;99.90
10848;DHT22;5477;48.806;9.154;2022-09-28T02:25:59;9.70;99.90
10848;DHT22;5477;48.806;9.154;2022-09-28T02:28:29;9.80;99.90
10848;DHT22;5477;48.806;9.154;2022-09-28T02:30:57;9.80;99.90
10848;DHT22;5477;48.806;9.154;2022-09-28T02:33:28;9.80;99.90
10848;DHT22;5477;48.806;9.154;2022-09-28T02:35:59;9.80;99.90
10848;DHT22;5477;48.806;9.154;2022-09-28T02:38:30;9.80;99.90
10848;DHT22;5477;48.806;9.154;2022-09-28T02:41:03;9.80;99.90
10848;DHT22;5477;48.806;9.154;2022-09-28T02:43:42;9.80;99.90
10848;DHT22;5477;48.806;9.154;2022-09-28T02:46:22;9.90;99.90
10848;DHT22;5477;48.806;9.154;2022-09-28T02:49:10;10.00;99.90
10848;DHT22;5477;48.806;9.154;2022-09-28T02:52:14;10.00;99.90
10848;DHT22;5477;48.806;9.154;2022-09-28T02:55:17;9.90;99.90
10848;DHT22;5477;48.806;9.154;2022-09-28T02:58:02;9.90;99.90
10848;DHT22;5477;48.806;9.154;2022-09-28T03:00:42;9.90;99.90
10848;DHT22;5477;48.806;9.154;2022-09-28T03:03:17;9.90;99.90
10848;DHT22;5477;48.806;9.154;2022-09-28T03:05:56;9.80;99.90
10848;DHT22;5477;48.806;9.154;2022-09-28T03:08:33;9.80;99.90
10848;DHT22;5477;48.806;9.154;2022-09-28T03:11:08;9.90;99.90
10848;DHT22;5477;48.806;9.154;2022-09-28T03:13:41;9.90;99.90
10848;DHT22;5477;48.806;9.154;2022-09-28T03:16:13;9.90;99.90
10848;DHT22;5477;48.806;9.154;2022-09-28T03:18:43;9.90;99.90
10848;DHT22;5477;48.806;9.154;2022-09-28T03:21:12;9.90;99.90
10848;DHT22;5477;48.806;9.154;2022-09-28T03:23:41;10.00;99.90
10848;DHT22;5477;48.806;9.154;2022-09-28T03:26:10;9.90;99.90
10848;DHT22;5477;48.806;9.154;2022-09-28T03:28:39;9.90;99.90
10848;DHT22;5477;48.806;9.154;2022-09-28T03:31:13;9.90;99.90
10848;DHT22;5477;48.806;9.154;2022-09-28T03:33:41;9.90;99.90
10848;DHT22;5477;48.806;9.154;2022-09-28T03:36:09;9.90;99.90
10848;DHT22;5477;48.806;9.154;2022-09-28T03:38:40;9.90;99.90
10848;DHT22;5477;48.806;9.154;2022-09-28T03:41:09;9.90;99.90
10848;DHT22;5477;48.806;9.154;2022-09-28T03:43:40;9.90;99.90
10848;DHT22;5477;48.806;9.154;2022-09-28T03:46:08;9.90;99.90
10848;DHT22;5477;48.806;9.154;2022-09-28T03:48:43;9.90;99.90
10848;DHT22;5477;48.806;9.154;2022-09-28T03:51:11;10.00;99.90
10848;DHT22;5477;48.806;9.154;2022-09-28T03:53:39;10.10;99.90
10848;DHT22;5477;48.806;9.154;2022-09-28T03:56:10;10.10;99.90
10848;DHT22;5477;48.806;9.154;2022-09-28T03:58:40;10.00;99.90
10848;DHT22;5477;48.806;9.154;2022-09-28T04:01:13;9.90;99.90
10848;DHT22;5477;48.806;9.154;2022-09-28T04:03:51;9.90;99.90
10848;DHT22;5477;48.806;9.154;2022-09-28T04:06:20;9.80;99.90
10848;DHT22;5477;48.806;9.154;2022-09-28T04:08:49;9.70;99.90
10848;DHT22;5477;48.806;9.154;2022-09-28T04:11:17;9.70;99.90
10848;DHT22;5477;48.806;9.154;2022-09-28T04:13:46;9.70;99.90
10848;DHT22;5477;48.806;9.154;2022-09-28T04:16:15;9.60;99.90
10848;DHT22;5477;48.806;9.154;2022-09-28T04:19:08;9.60;99.90
10848;DHT22;5477;48.806;9.154;2022-09-28T04:21:54;9.60;99.90
10848;DHT22;5477;48.806;9.154;2022-09-28T04:24:22;9.60;99.90
10848;DHT22;5477;48.806;9.154;2022-09-28T04:26:50;9.70;99.90
10848;DHT22;5477;48.806;9.154;2022-09-28T04:29:38;9.70;99.90
10848;DHT22;5477;48.806;9.154;2022-09-28T04:32:10;9.70;99.90
10848;DHT22;5477;48.806;9.154;2022-09-28T04:34:40;9.70;99.90
10848;DHT22;5477;48.806;9.154;2022-09-28T04:37:10;9.70;99.90
10848;DHT22;5477;48.806;9.154;2022-09-28T04:39:39;9.70;99.90
10848;DHT22;5477;48.806;9.154;2022-09-28T04:42:15;9.70;99.90
10848;DHT22;5477;48.806;9.154;2022-09-28T04:44:43;9.60;99.90
10848;DHT22;5477;48.806;9.154;2022-09-28T04:47:11;9.60;99.90
10848;DHT22;5477;48.806;9.154;2022-09-28T04:49:58;9.60;99.90
10848;DHT22;5477;48.806;9.154;2022-09-28T04:52:30;9.60;99.90
10848;DHT22;5477;48.806;9.154;2022-09-28T04:54:58;9.60;99.90
10848;DHT22;5477;48.806;9.154;2022-09-28T04:57:26;9.60;99.90
10848;DHT22;5477;48.806;9.154;2022-09-28T04:59:55;9.60;99.90
10848;DHT22;5477;48.806;9.154;2022-09-28T05:02:23;9.50;99.90
10848;DHT22;5477;48.806;9.154;2022-09-28T05:05:10;9.50;99.90
10848;DHT22;5477;48.806;9.154;2022-09-28T05:07:57;9.50;99.90
10848;DHT22;5477;48.806;9.154;2022-09-28T05:10:25;9.50;99.90
10848;DHT22;5477;48.806;9.154;2022-09-28T05:12:53;9.60;99.90
10848;DHT22;5477;48.806;9.154;2022-09-28T05:15:21;9.60;99.90
10848;DHT22;5477;48.806;9.154;2022-09-28T05:17:51;9.70;99.90
10848;DHT22;5477;48.806;9.154;2022-09-28T05:20:28;9.60;99.90
10848;DHT22;5477;48.806;9.154;2022-09-28T05:22:56;9.70;99.90
10848;DHT22;5477;48.806;9.154;2022-09-28T05:25:24;9.70;99.90
10848;DHT22;5477;48.806;9.154;2022-09-28T05:28:05;9.70;99.90
10848;DHT22;5477;48.806;9.154;2022-09-28T05:30:40;9.60;99.90
10848;DHT22;5477;48.806;9.154;2022-09-28T05:33:40;9.60;99.90
10848;DHT22;5477;48.806;9.154;2022-09-28T05:36:11;9.50;99.90
10848;DHT22;5477;48.806;9.154;2022-09-28T05:38:41;9.60;99.90
10848;DHT22;5477;48.806;9.154;2022-09-28T05:41:09;9.60;99.90
10848;DHT22;5477;48.806;9.154;2022-09-28T05:43:39;9.60;99.90
10848;DHT22;5477;48.806;9.154;2022-09-28T05:46:07;9.60;99.90
10848;DHT22;5477;48.806;9.154;2022-09-28T05:48:38;9.70;99.90
10848;DHT22;5477;48.806;9.154;2022-09-28T05:51:06;9.70;99.90
10848;DHT22;5477;48.806;9.154;2022-09-28T05:53:37;9.60;99.90
10848;DHT22;5477;48.806;9.154;2022-09-28T05:56:05;9.60;99.90
10848;DHT22;5477;48.806;9.154;2022-09-28T05:58:35;9.60;99.90
10848;DHT22;5477;48.806;9.154;2022-09-28T06:01:03;9.60;99.90
10848;DHT22;5477;48.806;9.154;2022-09-28T06:03:31;9.60;99.90
10848;DHT22;5477;48.806;9.154;2022-09-28T06:06:00;9.60;99.90
10848;DHT22;5477;48.806;9.154;2022-09-28T06:08:30;9.60;99.90
10848;DHT22;5477;48.806;9.154;2022-09-28T06:11:17;9.60;99.90
10848;DHT22;5477;48.806;9.154;2022-09-28T06:13:46;9.60;99.90
10848;DHT22;5477;48.806;9.154;2022-09-28T06:16:14;9.60;99.90
10848;DHT22;5477;48.806;9.154;2022-09-28T06:18:43;9.60;99.90
10848;DHT22;5477;48.806;9.154;2022-09-28T06:21:37;9.70;99.90
10848;DHT22;5477;48.806;9.154;2022-09-28T06:24:06;9.70;99.90
10848;DHT22;5477;48.806;9.154;2022-09-28T06:26:36;9.70;99.90
10848;DHT22;5477;48.806;9.154;2022-09-28T06:29:05;9.70;99.90
10848;DHT22;5477;48.806;9.154;2022-09-28T06:31:33;9.80;99.90
10848;DHT22;5477;48.806;9.154;2022-09-28T06:34:01;9.80;99.90
10848;DHT22;5477;48.806;9.154;2022-09-28T06:36:29;9.90;99.90
10848;DHT22;5477;48.806;9.154;2022-09-28T06:38:58;10.00;99.90
10848;DHT22;5477;48.806;9.154;2022-09-28T06:41:26;10.10;99.90
10848;DHT22;5477;48.806;9.154;2022-09-28T06:43:59;10.10;99.90
10848;DHT22;5477;48.806;9.154;2022-09-28T06:46:46;10.10;99.90
10848;DHT22;5477;48.806;9.154;2022-09-28T06:49:17;10.10;99.90
10848;DHT22;5477;48.806;9.154;2022-09-28T06:52:14;10.20;99.90
10848;DHT22;5477;48.806;9.154;2022-09-28T06:55:08;10.30;99.90
10848;DHT22;5477;48.806;9.154;2022-09-28T06:57:42;10.30;99.90
10848;DHT22;5477;48.806;9.154;2022-09-28T07:00:12;10.30;99.90
10848;DHT22;5477;48.806;9.154;2022-09-28T07:02:44;10.30;99.90
10848;DHT22;5477;48.806;9.154;2022-09-28T07:05:40;10.20;99.90
10848;DHT22;5477;48.806;9.154;2022-09-28T07:08:38;10.20;99.90
10848;DHT22;5477;48.806;9.154;2022-09-28T07:11:26;10.10;99.90
10848;DHT22;5477;48.806;9.154;2022-09-28T07:14:09;10.20;99.90
10848;DHT22;5477;48.806;9.154;2022-09-28T07:16:56;10.10;99.90
10848;DHT22;5477;48.806;9.154;2022-09-28T07:19:40;10.00;99.90
10848;DHT22;5477;48.806;9.154;2022-09-28T07:22:08;10.10;99.90
10848;DHT22;5477;48.806;9.154;2022-09-28T07:24:45;10.20;99.90
10848;DHT22;5477;48.806;9.154;2022-09-28T07:27:46;10.30;99.90
10848;DHT22;5477;48.806;9.154;2022-09-28T07:30:34;10.30;99.90
10848;DHT22;5477;48.806;9.154;2022-09-28T07:33:32;10.20;99.90
10848;DHT22;5477;48.806;9.154;2022-09-28T07:36:16;10.30;99.90
10848;DHT22;5477;48.806;9.154;2022-09-28T07:38:47;10.40;99.90
10848;DHT22;5477;48.806;9.154;2022-09-28T07:41:15;10.40;99.90
10848;DHT22;5477;48.806;9.154;2022-09-28T07:43:49;10.50;99.90
10848;DHT22;5477;48.806;9.154;2022-09-28T07:46:18;10.50;99.90
10848;DHT22;5477;48.806;9.154;2022-09-28T07:48:56;10.50;99.90
10848;DHT22;5477;48.806;9.154;2022-09-28T07:51:53;10.50;99.90
10848;DHT22;5477;48.806;9.154;2022-09-28T07:54:35;10.60;99.90
10848;DHT22;5477;48.806;9.154;2022-09-28T07:57:25;10.60;99.90
10848;DHT22;5477;48.806;9.154;2022-09-28T08:00:05;10.70;99.90
10848;DHT22;5477;48.806;9.154;2022-09-28T08:02:42;10.80;99.90
10848;DHT22;5477;48.806;9.154;2022-09-28T08:05:15;10.80;99.90
10848;DHT22;5477;48.806;9.154;2022-09-28T08:07:43;10.80;99.90
10848;DHT22;5477;48.806;9.154;2022-09-28T08:10:12;10.80;99.90
10848;DHT22;5477;48.806;9.154;2022-09-28T08:12:45;10.90;99.90
10848;DHT22;5477;48.806;9.154;2022-09-28T08:15:32;10.90;99.90
10848;DHT22;5477;48.806;9.154;2022-09-28T08:18:25;11.00;99.90
10848;DHT22;5477;48.806;9.154;2022-09-28T08:20:55;11.00;99.90
10848;DHT22;5477;48.806;9.154;2022-09-28T08:23:53;10.90;99.90
10848;DHT22;5477;48.806;9.154;2022-09-28T08:26:21;10.90;99.90
10848;DHT22;5477;48.806;9.154;2022-09-28T08:28:49;10.80;99.90
10848;DHT22;5477;48.806;9.154;2022-09-28T08:31:38;10.80;99.90
10848;DHT22;5477;48.806;9.154;2022-09-28T08:34:40;11.00;99.90
10848;DHT22;5477;48.806;9.154;2022-09-28T08:37:28;11.20;99.90
10848;DHT22;5477;48.806;9.154;2022-09-28T08:40:17;11.50;99.90
10848;DHT22;5477;48.806;9.154;2022-09-28T08:43:05;11.60;99.90
10848;DHT22;5477;48.806;9.154;2022-09-28T08:46:12;11.50;99.90
10848;DHT22;5477;48.806;9.154;2022-09-28T08:48:59;11.60;99.90
10848;DHT22;5477;48.806;9.154;2022-09-28T08:52:29;11.60;99.90
10848;DHT22;5477;48.806;9.154;2022-09-28T08:55:14;11.50;99.90
10848;DHT22;5477;48.806;9.154;2022-09-28T08:57:49;11.40;99.90
10848;DHT22;5477;48.806;9.154;2022-09-28T09:00:20;11.50;99.90
10848;DHT22;5477;48.806;9.154;2022-09-28T09:02:50;11.50;99.90
10848;DHT22;5477;48.806;9.154;2022-09-28T09:05:26;11.50;99.90
10848;DHT22;5477;48.806;9.154;2022-09-28T09:08:17;11.40;99.90
10848;DHT22;5477;48.806;9.154;2022-09-28T09:10:51;11.50;99.90
10848;DHT22;5477;48.806;9.154;2022-09-28T09:16:37;11.50;99.90
10848;DHT22;5477;48.806;9.154;2022-09-28T09:19:20;11.70;99.90
10848;DHT22;5477;48.806;9.154;2022-09-28T09:22:15;11.90;99.90
10848;DHT22;5477;48.806;9.154;2022-09-28T09:24:50;12.00;99.90
10848;DHT22;5477;48.806;9.154;2022-09-28T09:27:40;12.10;99.90
10848;DHT22;5477;48.806;9.154;2022-09-28T09:30:12;12.10;99.90
10848;DHT22;5477;48.806;9.154;2022-09-28T09:33:09;12.00;99.90
10848;DHT22;5477;48.806;9.154;2022-09-28T09:36:10;12.00;99.90
10848;DHT22;5477;48.806;9.154;2022-09-28T09:39:27;12.30;99.90
10848;DHT22;5477;48.806;9.154;2022-09-28T09:42:31;12.20;99.90
10848;DHT22;5477;48.806;9.154;2022-09-28T09:45:34;12.20;99.90
10848;DHT22;5477;48.806;9.154;2022-09-28T09:48:16;12.20;99.90
10848;DHT22;5477;48.806;9.154;2022-09-28T09:50:48;12.20;99.90
10848;DHT22;5477;48.806;9.154;2022-09-28T09:53:23;12.40;99.90
10848;DHT22;5477;48.806;9.154;2022-09-28T09:55:55;12.40;99.90
10848;DHT22;5477;48.806;9.154;2022-09-28T09:58:56;12.60;99.90
10848;DHT22;5477;48.806;9.154;2022-09-28T10:01:36;12.50;99.90
10848;DHT22;5477;48.806;9.154;2022-09-28T10:04:25;12.40;99.90
10848;DHT22;5477;48.806;9.154;2022-09-28T10:07:00;12.40;99.90
10848;DHT22;5477;48.806;9.154;2022-09-28T10:09:35;12.40;99.90
10848;DHT22;5477;48.806;9.154;2022-09-28T10:12:23;12.50;99.90
10848;DHT22;5477;48.806;9.154;2022-09-28T10:14:54;12.70;99.90
10848;DHT22;5477;48.806;9.154;2022-09-28T10:17:26;12.60;99.90
10848;DHT22;5477;48.806;9.154;2022-09-28T10:20:14;12.40;99.90
10848;DHT22;5477;48.806;9.154;2022-09-28T10:22:56;12.20;99.90
10848;DHT22;5477;48.806;9.154;2022-09-28T10:25:29;12.30;99.90
10848;DHT22;5477;48.806;9.154;2022-09-28T10:28:00;12.30;99.90
10848;DHT22;5477;48.806;9.154;2022-09-28T10:30:36;12.30;99.90
10848;DHT22;5477;48.806;9.154;2022-09-28T10:33:28;12.50;99.90
10848;DHT22;5477;48.806;9.154;2022-09-28T10:35:58;12.50;99.90
10848;DHT22;5477;48.806;9.154;2022-09-28T10:38:28;12.50;99.90
10848;DHT22;5477;48.806;9.154;2022-09-28T10:41:09;12.40;99.90
10848;DHT22;5477;48.806;9.154;2022-09-28T10:43:55;12.40;99.90
10848;DHT22;5477;48.806;9.154;2022-09-28T10:46:40;12.60;99.90
10848;DHT22;5477;48.806;9.154;2022-09-28T10:49:15;12.70;99.90
10848;DHT22;5477;48.806;9.154;2022-09-28T10:51:53;12.80;99.90
10848;DHT22;5477;48.806;9.154;2022-09-28T10:54:27;12.80;99.90
10848;DHT22;5477;48.806;9.154;2022-09-28T10:56:58;12.60;99.90
10848;DHT22;5477;48.806;9.154;2022-09-28T10:59:38;12.60;99.90
10848;DHT22;5477;48.806;9.154;2022-09-28T11:02:29;12.60;99.90
10848;DHT22;5477;48.806;9.154;2022-09-28T11:05:19;12.70;99.90
10848;DHT22;5477;48.806;9.154;2022-09-28T11:07:50;12.90;99.90
10848;DHT22;5477;48.806;9.154;2022-09-28T11:10:27;12.90;99.90
10848;DHT22;5477;48.806;9.154;2022-09-28T11:13:01;12.80;99.90
10848;DHT22;5477;48.806;9.154;2022-09-28T11:15:32;12.80;99.90
10848;DHT22;5477;48.806;9.154;2022-09-28T11:18:22;12.80;99.90
10848;DHT22;5477;48.806;9.154;2022-09-28T11:21:06;12.90;99.90
10848;DHT22;5477;48.806;9.154;2022-09-28T11:23:55;12.80;99.90
10848;DHT22;5477;48.806;9.154;2022-09-28T11:26:23;12.80;99.90
10848;DHT22;5477;48.806;9.154;2022-09-28T11:28:53;12.80;99.90
10848;DHT22;5477;48.806;9.154;2022-09-28T11:31:31;12.80;99.90
10848;DHT22;5477;48.806;9.154;2022-09-28T11:34:15;13.00;99.90
10848;DHT22;5477;48.806;9.154;2022-09-28T11:37:25;13.60;99.90
10848;DHT22;5477;48.806;9.154;2022-09-28T11:40:06;14.10;99.90
10848;DHT22;5477;48.806;9.154;2022-09-28T11:42:41;14.20;99.90
10848;DHT22;5477;48.806;9.154;2022-09-28T11:45:31;14.20;99.90
10848;DHT22;5477;48.806;9.154;2022-09-28T11:48:04;14.00;99.90
10848;DHT22;5477;48.806;9.154;2022-09-28T11:50:44;14.40;99.90
10848;DHT22;5477;48.806;9.154;2022-09-28T11:53:19;14.50;99.90
10848;DHT22;5477;48.806;9.154;2022-09-28T11:55:57;14.50;99.90
10848;DHT22;5477;48.806;9.154;2022-09-28T11:58:34;14.60;99.90
10848;DHT22;5477;48.806;9.154;2022-09-28T12:01:09;14.80;99.90
10848;DHT22;5477;48.806;9.154;2022-09-28T12:04:12;14.90;99.90
10848;DHT22;5477;48.806;9.154;2022-09-28T12:06:48;14.80;99.90
10848;DHT22;5477;48.806;9.154;2022-09-28T12:09:21;15.30;99.90
10848;DHT22;5477;48.806;9.154;2022-09-28T12:12:00;15.10;99.90
10848;DHT22;5477;48.806;9.154;2022-09-28T12:14:44;14.90;99.90
10848;DHT22;5477;48.806;9.154;2022-09-28T12:17:19;14.80;99.90
10848;DHT22;5477;48.806;9.154;2022-09-28T12:19:51;14.60;99.90
10848;DHT22;5477;48.806;9.154;2022-09-28T12:22:28;14.70;99.90
10848;DHT22;5477;48.806;9.154;2022-09-28T12:25:01;14.70;99.90
10848;DHT22;5477;48.806;9.154;2022-09-28T12:27:35;14.90;99.90
10848;DHT22;5477;48.806;9.154;2022-09-28T12:30:12;14.80;99.90
10848;DHT22;5477;48.806;9.154;2022-09-28T12:32:43;14.60;99.90
10848;DHT22;5477;48.806;9.154;2022-09-28T12:35:14;14.70;99.90
10848;DHT22;5477;48.806;9.154;2022-09-28T12:37:55;14.40;99.90
10848;DHT22;5477;48.806;9.154;2022-09-28T12:40:42;14.60;99.90
10848;DHT22;5477;48.806;9.154;2022-09-28T12:43:31;14.80;99.90
10848;DHT22;5477;48.806;9.154;2022-09-28T12:46:15;15.30;99.90
10848;DHT22;5477;48.806;9.154;2022-09-28T12:52:04;16.00;99.90
10848;DHT22;5477;48.806;9.154;2022-09-28T12:54:47;15.90;99.90
10848;DHT22;5477;48.806;9.154;2022-09-28T12:57:36;15.90;99.90
10848;DHT22;5477;48.806;9.154;2022-09-28T13:00:09;15.60;99.90
10848;DHT22;5477;48.806;9.154;2022-09-28T13:05:59;15.40;99.90
10848;DHT22;5477;48.806;9.154;2022-09-28T13:08:35;15.40;99.90
10848;DHT22;5477;48.806;9.154;2022-09-28T13:11:14;15.60;99.90
10848;DHT22;5477;48.806;9.154;2022-09-28T13:13:52;15.20;99.90
10848;DHT22;5477;48.806;9.154;2022-09-28T13:16:28;15.20;99.90
10848;DHT22;5477;48.806;9.154;2022-09-28T13:19:05;15.10;99.90
10848;DHT22;5477;48.806;9.154;2022-09-28T13:21:42;15.00;99.90
10848;DHT22;5477;48.806;9.154;2022-09-28T13:24:21;14.90;99.90
10848;DHT22;5477;48.806;9.154;2022-09-28T13:27:04;15.20;99.90
10848;DHT22;5477;48.806;9.154;2022-09-28T13:29:33;15.60;99.90
10848;DHT22;5477;48.806;9.154;2022-09-28T13:32:02;15.90;99.90
10848;DHT22;5477;48.806;9.154;2022-09-28T13:34:32;15.50;99.90
10848;DHT22;5477;48.806;9.154;2022-09-28T13:37:17;15.10;99.90
10848;DHT22;5477;48.806;9.154;2022-09-28T13:39:48;15.40;99.90
10848;DHT22;5477;48.806;9.154;2022-09-28T13:45:39;15.60;99.90
10848;DHT22;5477;48.806;9.154;2022-09-28T13:48:14;15.80;99.90
10848;DHT22;5477;48.806;9.154;2022-09-28T13:51:03;15.60;99.90
10848;DHT22;5477;48.806;9.154;2022-09-28T13:53:42;15.40;99.90
10848;DHT22;5477;48.806;9.154;2022-09-28T13:56:24;15.60;99.90
10848;DHT22;5477;48.806;9.154;2022-09-28T13:58:58;15.50;99.90
10848;DHT22;5477;48.806;9.154;2022-09-28T14:01:34;15.50;99.90
10848;DHT22;5477;48.806;9.154;2022-09-28T14:04:14;15.40;99.90
10848;DHT22;5477;48.806;9.154;2022-09-28T14:06:48;15.10;99.90
10848;DHT22;5477;48.806;9.154;2022-09-28T14:09:41;15.20;99.90
10848;DHT22;5477;48.806;9.154;2022-09-28T14:12:43;15.30;99.90
10848;DHT22;5477;48.806;9.154;2022-09-28T14:15:41;15.40;99.90
10848;DHT22;5477;48.806;9.154;2022-09-28T14:18:18;15.40;99.90
10848;DHT22;5477;48.806;9.154;2022-09-28T14:21:04;15.30;99.90
10848;DHT22;5477;48.806;9.154;2022-09-28T14:23:45;15.50;99.90
10848;DHT22;5477;48.806;9.154;2022-09-28T14:26:47;15.30;99.90
10848;DHT22;5477;48.806;9.154;2022-09-28T14:29:24;15.00;99.90
10848;DHT22;5477;48.806;9.154;2022-09-28T14:31:55;14.90;99.90
10848;DHT22;5477;48.806;9.154;2022-09-28T14:34:30;15.10;99.90
10848;DHT22;5477;48.806;9.154;2022-09-28T14:37:01;15.60;99.90
10848;DHT22;5477;48.806;9.154;2022-09-28T14:39:48;16.20;99.90
10848;DHT22;5477;48.806;9.154;2022-09-28T14:42:33;16.60;99.90
10848;DHT22;5477;48.806;9.154;2022-09-28T14:48:20;16.60;99.90
10848;DHT22;5477;48.806;9.154;2022-09-28T14:50:49;16.40;99.90
10848;DHT22;5477;48.806;9.154;2022-09-28T14:53:22;16.30;99.90
10848;DHT22;5477;48.806;9.154;2022-09-28T14:55:54;16.40;99.90
10848;DHT22;5477;48.806;9.154;2022-09-28T14:58:26;16.10;99.90
10848;DHT22;5477;48.806;9.154;2022-09-28T15:01:01;15.80;99.90
10848;DHT22;5477;48.806;9.154;2022-09-28T15:03:32;15.50;99.90
10848;DHT22;5477;48.806;9.154;2022-09-28T15:06:02;15.10;99.90
10848;DHT22;5477;48.806;9.154;2022-09-28T15:08:37;14.80;99.90
10848;DHT22;5477;48.806;9.154;2022-09-28T15:11:10;14.80;99.90
10848;DHT22;5477;48.806;9.154;2022-09-28T15:13:39;14.80;99.90
10848;DHT22;5477;48.806;9.154;2022-09-28T15:16:09;14.90;99.90
10848;DHT22;5477;48.806;9.154;2022-09-28T15:19:11;14.90;99.90
10848;DHT22;5477;48.806;9.154;2022-09-28T15:21:45;14.70;99.90
10848;DHT22;5477;48.806;9.154;2022-09-28T15:24:30;14.60;99.90
10848;DHT22;5477;48.806;9.154;2022-09-28T15:26:58;14.70;99.90
10848;DHT22;5477;48.806;9.154;2022-09-28T15:29:27;14.90;99.90
10848;DHT22;5477;48.806;9.154;2022-09-28T15:31:57;14.80;99.90
10848;DHT22;5477;48.806;9.154;2022-09-28T15:34:28;14.70;99.90
10848;DHT22;5477;48.806;9.154;2022-09-28T15:37:17;14.60;99.90
10848;DHT22;5477;48.806;9.154;2022-09-28T15:39:50;14.50;99.90
10848;DHT22;5477;48.806;9.154;2022-09-28T15:42:19;14.50;99.90
10848;DHT22;5477;48.806;9.154;2022-09-28T15:45:00;14.40;99.90
10848;DHT22;5477;48.806;9.154;2022-09-28T15:47:30;14.30;99.90
10848;DHT22;5477;48.806;9.154;2022-09-28T15:50:01;14.10;99.90
10848;DHT22;5477;48.806;9.154;2022-09-28T15:52:36;14.20;99.90
10848;DHT22;5477;48.806;9.154;2022-09-28T15:55:20;14.30;99.90
10848;DHT22;5477;48.806;9.154;2022-09-28T15:58:04;14.30;99.90
10848;DHT22;5477;48.806;9.154;2022-09-28T16:00:33;14.30;99.90
10848;DHT22;5477;48.806;9.154;2022-09-28T16:03:17;14.20;99.90
10848;DHT22;5477;48.806;9.154;2022-09-28T16:05:48;14.20;99.90
10848;DHT22;5477;48.806;9.154;2022-09-28T16:08:19;14.20;99.90
10848;DHT22;5477;48.806;9.154;2022-09-28T16:10:58;14.10;99.90
10848;DHT22;5477;48.806;9.154;2022-09-28T16:13:31;14.10;99.90
10848;DHT22;5477;48.806;9.154;2022-09-28T16:16:00;14.10;99.90
10848;DHT22;5477;48.806;9.154;2022-09-28T16:18:29;14.10;99.90
10848;DHT22;5477;48.806;9.154;2022-09-28T16:21:22;14.00;99.90
10848;DHT22;5477;48.806;9.154;2022-09-28T16:23:53;14.10;99.90
10848;DHT22;5477;48.806;9.154;2022-09-28T16:26:29;14.10;99.90
10848;DHT22;5477;48.806;9.154;2022-09-28T16:28:59;14.00;99.90
10848;DHT22;5477;48.806;9.154;2022-09-28T16:31:32;14.00;99.90
10848;DHT22;5477;48.806;9.154;2022-09-28T16:34:09;14.00;99.90
10848;DHT22;5477;48.806;9.154;2022-09-28T16:36:39;14.00;99.90
10848;DHT22;5477;48.806;9.154;2022-09-28T16:39:12;14.00;99.90
10848;DHT22;5477;48.806;9.154;2022-09-28T16:41:44;13.90;99.90
10848;DHT22;5477;48.806;9.154;2022-09-28T16:44:18;13.80;99.90
10848;DHT22;5477;48.806;9.154;2022-09-28T16:46:49;13.60;99.90
10848;DHT22;5477;48.806;9.154;2022-09-28T16:49:17;13.40;99.90
10848;DHT22;5477;48.806;9.154;2022-09-28T16:51:46;13.30;99.90
10848;DHT22;5477;48.806;9.154;2022-09-28T16:54:17;13.00;99.90
10848;DHT22;5477;48.806;9.154;2022-09-28T16:57:05;12.80;99.90
10848;DHT22;5477;48.806;9.154;2022-09-28T16:59:33;12.50;99.90
10848;DHT22;5477;48.806;9.154;2022-09-28T17:02:16;12.20;99.90
10848;DHT22;5477;48.806;9.154;2022-09-28T17:05:05;12.00;99.90
10848;DHT22;5477;48.806;9.154;2022-09-28T17:07:33;11.80;99.90
10848;DHT22;5477;48.806;9.154;2022-09-28T17:10:11;11.60;99.90